Redwood City, CA (94063)

7:19 PM PDT on September 04, 2015 (GMT -0700)
White Oaks | | Change Station
CLOSE
Current Station
Personal Weather Station
Location: San Carlos, CA
Elevation: 52 ft
Nearby Weather Stations

Elev 52 ft 37.49 °N, 122.26 °W | Updated 4 minutes ago

Mostly Cloudy
Mostly Cloudy
61.9 °F
Feels Like 61.9 °F
N
1.0
Wind Variable Wind from SSE
Gusts 10.0 mph

Today
High -- | Low -- °F
--% Chance of Precip.
Yesterday
High -- | Low -- °F
Precip. -- in
6:41 AM 7:33 PM
Waning Gibbous, 53% visible
Pressure 29.90 in
Visibility 10.0 miles
Clouds Mostly Cloudy 18000 ft
Dew Point 51 °F
Humidity 67%
Rainfall 0.00 in
Snow Depth Not available.
UV 0 out of 12
Pollen 8.30 out of 12
Air Quality Not available.
Flu Activity Not available.
METAR KSQL 050149Z 25013G20KT 10SM BKN180 18/09 A2990
Pressure 29.90 in
Visibility 10.0 miles
Clouds Mostly Cloudy 18000 ft
Dew Point 51 °F
Humidity 67%
Rainfall 0.00 in
Snow Depth Not available.
UV 0 out of 12
Pollen 8.30 out of 12
Air Quality Not available.
Flu Activity Not available.
METAR KSQL 050149Z 25013G20KT 10SM BKN180 18/09 A2990

10-Day Weather Forecast

×

Almanac

Astronomy

Sep. 04, 2015 Rise Set
Actual Time
Civil Twilight
Nautical Twilight
Astronomical Twilight
Moon
Length of Visible Light
Length of Day
Tomorrow will be .
, % of the Moon is Illuminated

Today's Extremes

State Highs State Lows

Community

WunderPhotos

Upload Photos

1,852,384 photos uploaded!

WunderBlogs® & News

Nearby

Air Quality

  Air Quality AQ Index Pollutant
Not available.

Snow Depth

Station Depth Elevation

Earthquake Activity

City Distance Mag. Time & Date
Minimum magnitude displayed is 2.5.

Coastal Water Temperatures

Place Temperature

Stations

Nearby Weather Stations

Station Location Temp. Windchill Dew Point Humidity Wind Precip. Elev Updated Type